Time;durP1;ratioP1;P1;durP2;ratioP2;P2;SDS_P1;SDS_P2;PMS_P1;PMS_P2;Temp;Humidity;BMP_temperature;BMP_pressure;BME280_temperature;BME280_humidity;BME280_pressure;Samples;Min_cycle;Max_cycle;Signal;HPM_P1;HPM_P2
2022/07/09 00:01:11;;;;;;;9.13;4.70;;;;;;;13.67;100.00;97464.00;5083083;28;20622;-54
2022/07/09 00:03:40;;;;;;;6.97;4.65;;;;;;;13.64;100.00;97456.31;5082042;28;20076;-50
2022/07/09 00:06:08;;;;;;;8.05;4.72;;;;;;;13.43;100.00;97461.75;5074795;28;20076;-51
2022/07/09 00:08:40;;;;;;;6.95;4.72;;;;;;;13.61;100.00;97457.41;5081220;28;20088;-52
2022/07/09 00:11:13;;;;;;;6.18;4.63;;;;;;;13.45;100.00;97455.31;5077870;28;20064;-52
2022/07/09 00:13:41;;;;;;;7.23;4.70;;;;;;;13.47;100.00;97455.19;5083684;28;20084;-54
2022/07/09 00:16:10;;;;;;;6.18;4.18;;;;;;;13.58;100.00;97454.22;5076498;28;20064;-52
2022/07/09 00:18:38;;;;;;;5.68;4.55;;;;;;;13.54;100.00;97451.00;5079702;28;20091;-50
2022/07/09 00:21:07;;;;;;;4.90;4.30;;;;;;;13.87;100.00;97449.75;5082990;28;20086;-52
2022/07/09 00:23:35;;;;;;;6.45;4.72;;;;;;;13.78;100.00;97445.28;5076720;28;20080;-52
2022/07/09 00:26:03;;;;;;;4.75;4.30;;;;;;;13.75;100.00;97448.22;5074892;28;20063;-51
2022/07/09 00:28:33;;;;;;;5.50;4.90;;;;;;;13.81;100.00;97446.81;5083527;28;20076;-54
2022/07/09 00:31:02;;;;;;;7.93;4.28;;;;;;;13.78;100.00;97447.94;5074875;28;20541;-51
2022/07/09 00:33:31;;;;;;;6.47;4.90;;;;;;;13.64;100.00;97441.25;5079183;28;20075;-52
2022/07/09 00:35:59;;;;;;;6.95;5.07;;;;;;;13.80;100.00;97429.22;5081716;28;20071;-51
2022/07/09 00:38:27;;;;;;;6.95;5.35;;;;;;;13.94;100.00;97432.31;5079079;28;20080;-55
2022/07/09 00:40:56;;;;;;;6.72;5.15;;;;;;;13.98;100.00;97432.84;5074574;28;20074;-55
2022/07/09 00:43:24;;;;;;;6.63;5.18;;;;;;;13.96;100.00;97424.19;5074645;28;20739;-54
2022/07/09 00:45:54;;;;;;;6.60;5.57;;;;;;;14.05;100.00;97420.69;5078944;28;20609;-50
2022/07/09 00:48:23;;;;;;;6.93;5.00;;;;;;;14.15;100.00;97418.03;5082574;28;20079;-54
2022/07/09 00:50:51;;;;;;;6.28;5.32;;;;;;;14.01;100.00;97412.19;5077201;28;20083;-53
2022/07/09 00:53:24;;;;;;;6.15;5.18;;;;;;;14.02;100.00;97420.97;5077274;28;20071;-53
2022/07/09 00:55:53;;;;;;;7.70;5.45;;;;;;;14.07;100.00;97416.06;5079406;28;20522;-53
2022/07/09 00:58:22;;;;;;;7.43;4.82;;;;;;;14.11;100.00;97414.81;5076156;28;20451;-53
2022/07/09 01:00:50;;;;;;;9.02;5.43;;;;;;;14.02;100.00;97415.66;5076128;28;20076;-52
2022/07/09 01:03:20;;;;;;;6.10;5.40;;;;;;;14.09;100.00;97413.28;5076762;28;20660;-53
2022/07/09 01:05:49;;;;;;;7.18;4.90;;;;;;;14.12;100.00;97408.53;5078125;28;20118;-51
2022/07/09 01:08:18;;;;;;;7.32;5.13;;;;;;;13.89;100.00;97409.81;5075451;28;20769;-49
2022/07/09 01:10:46;;;;;;;8.23;5.70;;;;;;;13.95;100.00;97409.25;5078722;28;20089;-49
2022/07/09 01:13:15;;;;;;;7.82;5.50;;;;;;;13.97;100.00;97408.16;5073647;28;20060;-53
2022/07/09 01:15:43;;;;;;;7.75;5.00;;;;;;;14.04;100.00;97411.06;5077368;28;20114;-53
2022/07/09 01:18:12;;;;;;;12.32;5.15;;;;;;;14.21;100.00;97391.75;5082927;28;20509;-52
2022/07/09 01:20:42;;;;;;;5.65;4.65;;;;;;;14.31;100.00;97398.84;5079999;28;20075;-51
2022/07/09 01:23:11;;;;;;;5.30;4.80;;;;;;;14.23;100.00;97400.41;5084476;28;20059;-51
2022/07/09 01:25:40;;;;;;;6.93;5.13;;;;;;;14.24;100.00;97393.25;5083323;28;20080;-52
2022/07/09 01:28:10;;;;;;;5.43;4.85;;;;;;;14.41;100.00;97386.38;5081773;28;20062;-54
2022/07/09 01:30:40;;;;;;;6.47;5.13;;;;;;;14.37;100.00;97383.16;5080017;28;20091;-50
2022/07/09 01:33:08;;;;;;;6.15;4.85;;;;;;;14.32;100.00;97382.78;5075700;28;20090;-54
2022/07/09 01:35:37;;;;;;;10.93;5.57;;;;;;;14.49;100.00;97382.00;5080487;28;20546;-47
2022/07/09 01:38:06;;;;;;;6.03;4.75;;;;;;;14.62;100.00;97378.19;5076842;28;20505;-51
2022/07/09 01:40:35;;;;;;;7.47;4.90;;;;;;;14.79;100.00;97374.75;5070173;28;20072;-54
2022/07/09 01:43:03;;;;;;;5.30;4.68;;;;;;;14.78;100.00;97380.22;5075954;28;21034;-53
2022/07/09 01:45:31;;;;;;;7.28;5.60;;;;;;;14.72;100.00;97377.16;5077793;28;20537;-52
2022/07/09 01:48:00;;;;;;;10.27;5.32;;;;;;;14.83;100.00;97380.59;5081939;28;20044;-51
2022/07/09 01:50:28;;;;;;;7.28;5.20;;;;;;;15.06;100.00;97376.56;5074701;28;20083;-52
2022/07/09 01:52:57;;;;;;;7.60;5.45;;;;;;;14.98;100.00;97376.47;5078334;28;20068;-52
2022/07/09 01:55:26;;;;;;;8.35;5.78;;;;;;;15.14;100.00;97371.34;5076209;28;20060;-50
2022/07/09 01:57:55;;;;;;;5.53;4.83;;;;;;;15.01;100.00;97365.56;5080982;28;20068;-50
2022/07/09 02:00:24;;;;;;;7.72;5.18;;;;;;;15.11;100.00;97362.84;5071632;28;21117;-50
2022/07/09 02:02:52;;;;;;;8.75;5.50;;;;;;;15.09;100.00;97357.66;5079979;28;20076;-48
2022/07/09 02:05:21;;;;;;;6.15;5.38;;;;;;;14.96;100.00;97355.34;5075826;28;20060;-44
2022/07/09 02:07:49;;;;;;;9.68;5.72;;;;;;;15.13;100.00;97355.53;5074688;28;20079;-52
2022/07/09 02:10:17;;;;;;;6.80;5.18;;;;;;;15.12;100.00;97348.56;5077023;28;20518;-51
2022/07/09 02:12:47;;;;;;;7.72;4.90;;;;;;;15.15;100.00;97350.91;5076434;28;20619;-50
2022/07/09 02:15:16;;;;;;;5.95;4.70;;;;;;;15.27;100.00;97346.19;5076748;28;20094;-51
2022/07/09 02:17:44;;;;;;;7.90;4.85;;;;;;;15.36;100.00;97350.59;5073013;28;20471;-53
2022/07/09 02:20:12;;;;;;;7.05;5.32;;;;;;;15.29;100.00;97338.91;5072412;28;20410;-53
2022/07/09 02:22:41;;;;;;;5.28;4.63;;;;;;;15.15;100.00;97341.13;5079613;28;20505;-54
2022/07/09 02:25:10;;;;;;;9.10;5.40;;;;;;;15.22;100.00;97341.34;5076192;28;20072;-56
2022/07/09 02:27:38;;;;;;;11.02;5.45;;;;;;;15.47;100.00;97339.72;5074671;28;20079;-47
2022/07/09 02:30:09;;;;;;;8.82;5.53;;;;;;;15.30;100.00;97335.25;5073927;28;20502;-52
2022/07/09 02:32:38;;;;;;;;;;;;;;;15.35;100.00;97340.97;5080255;28;20498;-52
2022/07/09 02:35:07;;;;;;;7.13;5.03;;;;;;;15.53;100.00;97332.97;5079257;28;19955;-51
2022/07/09 02:37:36;;;;;;;7.53;4.90;;;;;;;15.34;100.00;97334.78;5076018;28;20079;-47
2022/07/09 02:40:06;;;;;;;6.57;5.55;;;;;;;15.33;100.00;97332.31;5077890;28;20142;-51
2022/07/09 02:42:35;;;;;;;7.05;5.55;;;;;;;15.37;100.00;97339.81;5080053;28;20080;-52
2022/07/09 02:45:04;;;;;;;7.17;5.13;;;;;;;15.33;100.00;97337.63;5081715;28;20103;-54
2022/07/09 02:47:34;;;;;;;8.73;5.93;;;;;;;15.43;100.00;97339.19;5081683;28;20068;-51
2022/07/09 02:50:02;;;;;;;7.40;5.18;;;;;;;15.52;100.00;97339.25;5081046;28;20056;-51
2022/07/09 02:52:30;;;;;;;8.00;6.25;;;;;;;15.72;100.00;97345.28;5078334;28;20087;-55
2022/07/09 02:54:59;;;;;;;6.55;5.28;;;;;;;15.65;100.00;97350.34;5079479;28;20509;-52
2022/07/09 02:57:27;;;;;;;9.00;5.20;;;;;;;15.65;100.00;97356.47;5080635;28;20083;-52
2022/07/09 02:59:55;;;;;;;7.35;5.10;;;;;;;15.73;100.00;97355.78;5080453;28;20549;-53
2022/07/09 03:02:24;;;;;;;8.90;5.88;;;;;;;15.68;100.00;97354.56;5077555;28;20526;-50
2022/07/09 03:04:53;;;;;;;6.60;5.78;;;;;;;15.69;100.00;97351.75;5081160;28;20076;-51
2022/07/09 03:07:22;;;;;;;6.03;5.20;;;;;;;15.54;100.00;97355.91;5080207;28;21010;-49
2022/07/09 03:09:50;;;;;;;6.63;5.40;;;;;;;15.54;100.00;97356.72;5083715;28;20083;-55
2022/07/09 03:12:19;;;;;;;11.30;6.53;;;;;;;15.43;100.00;97354.31;5080834;28;20075;-49
2022/07/09 03:14:47;;;;;;;8.20;5.38;;;;;;;15.38;100.00;97354.78;5077658;28;20514;-52
2022/07/09 03:17:15;;;;;;;7.07;5.68;;;;;;;15.57;100.00;97352.94;5080169;28;20067;-53
2022/07/09 03:19:44;;;;;;;8.68;5.00;;;;;;;15.64;100.00;97349.50;5077142;28;20726;-53
2022/07/09 03:22:13;;;;;;;5.25;4.72;;;;;;;15.70;100.00;97356.06;5084584;28;20086;-51
2022/07/09 03:24:42;;;;;;;9.37;4.83;;;;;;;15.59;100.00;97345.66;5086918;28;20082;-47
2022/07/09 03:27:10;;;;;;;7.75;5.03;;;;;;;15.69;100.00;97348.22;5081483;28;20075;-50
2022/07/09 03:29:38;;;;;;;7.68;5.40;;;;;;;15.59;100.00;97349.16;5081023;28;20099;-51
2022/07/09 03:32:08;;;;;;;8.55;4.57;;;;;;;15.78;100.00;97355.28;5077733;28;20103;-52
2022/07/09 03:34:37;;;;;;;7.70;4.97;;;;;;;15.76;100.00;97358.13;5081437;28;20288;-48
2022/07/09 03:37:05;;;;;;;7.32;5.50;;;;;;;15.92;100.00;97346.75;5082616;28;20484;-50
2022/07/09 03:39:35;;;;;;;7.10;5.60;;;;;;;15.81;100.00;97342.50;5074619;28;20340;-53
2022/07/09 03:42:06;;;;;;;5.97;5.35;;;;;;;15.97;100.00;97338.31;5073347;28;20124;-52
2022/07/09 03:44:34;;;;;;;8.00;6.43;;;;;;;15.98;100.00;97351.44;5080297;28;20068;-51
2022/07/09 03:47:03;;;;;;;9.02;5.30;;;;;;;15.96;100.00;97340.13;5074645;28;20136;-54
2022/07/09 03:49:31;;;;;;;7.95;5.80;;;;;;;15.75;100.00;97347.63;5078347;28;20627;-49
2022/07/09 03:52:00;;;;;;;7.28;5.47;;;;;;;15.99;100.00;97337.13;5084733;28;20071;-47
2022/07/09 03:54:45;;;;;;;7.82;5.45;;;;;;;15.96;100.00;97355.25;5080907;28;20422;-53
2022/07/09 03:57:13;;;;;;;5.88;4.80;;;;;;;15.97;100.00;97344.47;5077171;28;20440;-52
2022/07/09 03:59:42;;;;;;;6.20;4.80;;;;;;;16.28;100.00;97343.97;5078809;28;20615;-50
2022/07/09 04:02:10;;;;;;;10.90;6.07;;;;;;;16.16;100.00;97345.22;5078927;28;20079;-50
2022/07/09 04:04:42;;;;;;;6.22;5.60;;;;;;;16.30;100.00;97355.28;5085882;28;20079;-57
2022/07/09 04:07:11;;;;;;;7.68;5.15;;;;;;;16.11;100.00;97353.69;5084557;28;20075;-50
2022/07/09 04:09:39;;;;;;;7.40;5.05;;;;;;;16.02;100.00;97358.13;5085784;28;20474;-53
2022/07/09 04:12:09;;;;;;;6.95;5.63;;;;;;;16.31;100.00;97349.81;5084499;28;20102;-52
2022/07/09 04:14:38;;;;;;;7.45;5.00;;;;;;;16.65;100.00;97356.09;5081949;28;20071;-51
2022/07/09 04:17:06;;;;;;;6.97;5.45;;;;;;;16.40;100.00;97348.00;5084153;28;20091;-54
2022/07/09 04:19:35;;;;;;;6.47;5.88;;;;;;;16.34;100.00;97349.50;5088509;28;20083;-51
2022/07/09 04:22:04;;;;;;;7.63;5.75;;;;;;;16.46;100.00;97351.88;5085662;28;20088;-53
2022/07/09 04:24:32;;;;;;;7.95;6.20;;;;;;;16.44;100.00;97357.34;5085958;28;20079;-53
2022/07/09 04:27:01;;;;;;;8.45;5.72;;;;;;;16.56;100.00;97353.41;5078060;28;20086;-51
2022/07/09 04:29:31;;;;;;;7.68;5.53;;;;;;;16.56;100.00;97350.75;5083256;28;20498;-51
2022/07/09 04:31:59;;;;;;;9.50;5.45;;;;;;;16.55;100.00;97354.41;5087915;28;20080;-54
2022/07/09 04:34:27;;;;;;;6.50;5.63;;;;;;;16.88;100.00;97345.72;5076565;28;20593;-52
2022/07/09 04:36:56;;;;;;;7.68;5.45;;;;;;;16.87;100.00;97347.56;5072903;28;20060;-55
2022/07/09 04:39:24;;;;;;;6.70;5.30;;;;;;;16.78;100.00;97352.03;5072907;28;20076;-50
2022/07/09 04:41:53;;;;;;;7.35;5.65;;;;;;;16.91;100.00;97353.41;5081065;28;20601;-49
2022/07/09 04:44:21;;;;;;;7.97;6.00;;;;;;;16.94;100.00;97356.56;5084861;28;20481;-53
2022/07/09 04:46:51;;;;;;;5.93;5.20;;;;;;;17.15;100.00;97355.28;5086536;28;20088;-50
2022/07/09 04:49:20;;;;;;;7.00;5.60;;;;;;;17.20;100.00;97358.28;5086838;28;20083;-55
2022/07/09 04:51:49;;;;;;;7.28;5.97;;;;;;;17.53;100.00;97356.50;5082378;28;20513;-53
2022/07/09 04:54:17;;;;;;;6.38;5.00;;;;;;;17.53;100.00;97351.16;5075389;28;20935;-50
2022/07/09 04:56:46;;;;;;;7.78;5.60;;;;;;;17.37;100.00;97348.47;5076594;28;20076;-47
2022/07/09 04:59:14;;;;;;;6.30;5.70;;;;;;;17.43;100.00;97351.31;5080539;28;20581;-51
2022/07/09 05:01:42;;;;;;;7.97;5.50;;;;;;;17.29;100.00;97355.47;5080869;28;20099;-51
2022/07/09 05:04:12;;;;;;;6.30;5.70;;;;;;;17.67;100.00;97355.00;5077462;28;20080;-52
2022/07/09 05:06:41;;;;;;;10.98;7.10;;;;;;;17.38;100.00;97359.00;5077437;28;20084;-53
2022/07/09 05:09:09;;;;;;;7.63;5.72;;;;;;;17.69;100.00;97359.19;5078085;28;20067;-49
2022/07/09 05:11:37;;;;;;;6.50;5.70;;;;;;;17.55;100.00;97359.84;5072809;28;20091;-50
2022/07/09 05:14:06;;;;;;;8.00;5.22;;;;;;;17.46;100.00;97358.16;5080242;28;20553;-52
2022/07/09 05:16:35;;;;;;;10.02;4.85;;;;;;;17.21;100.00;97366.13;5073346;28;20087;-51
2022/07/09 05:19:03;;;;;;;5.55;5.03;;;;;;;18.00;100.00;97366.53;5077011;28;20103;-52
2022/07/09 05:21:33;;;;;;;6.38;5.65;;;;;;;17.95;100.00;97368.84;5075059;28;20076;-50
2022/07/09 05:24:02;;;;;;;6.07;5.55;;;;;;;17.66;100.00;97366.69;5071775;28;20167;-52
2022/07/09 05:26:30;;;;;;;7.18;6.32;;;;;;;17.69;100.00;97363.69;5081748;28;20071;-52
2022/07/09 05:28:58;;;;;;;6.25;5.53;;;;;;;18.13;100.00;97372.16;5083976;28;20522;-49
2022/07/09 05:31:27;;;;;;;7.57;5.00;;;;;;;18.05;100.00;97368.69;5074426;28;20080;-55
2022/07/09 05:34:03;;;;;;;8.60;5.35;;;;;;;17.90;100.00;97374.69;5078856;28;20080;-53
2022/07/09 05:36:33;;;;;;;7.45;6.32;;;;;;;17.85;100.00;97381.53;5077146;28;20074;-53
2022/07/09 05:39:02;;;;;;;7.85;5.00;;;;;;;18.15;100.00;97382.69;5082121;28;20129;-49
2022/07/09 05:41:30;;;;;;;7.30;5.80;;;;;;;17.59;100.00;97379.03;5082274;28;20079;-52
2022/07/09 05:43:58;;;;;;;6.57;5.10;;;;;;;17.87;100.00;97375.03;5080803;28;20064;-53
2022/07/09 05:46:27;;;;;;;7.05;5.57;;;;;;;17.60;100.00;97380.69;5076730;28;20454;-56
2022/07/09 05:48:55;;;;;;;6.38;5.00;;;;;;;17.57;100.00;97368.50;5080603;28;20099;-52
2022/07/09 05:51:23;;;;;;;7.85;6.45;;;;;;;17.76;100.00;97365.53;5077656;28;20138;-53
2022/07/09 05:53:53;;;;;;;6.57;5.80;;;;;;;17.68;100.00;97364.66;5079205;28;20091;-54
2022/07/09 05:56:22;;;;;;;7.20;6.32;;;;;;;18.01;100.00;97374.34;5080714;28;20076;-48
2022/07/09 05:58:50;;;;;;;6.45;5.85;;;;;;;18.07;100.00;97372.03;5081002;28;20083;-51
2022/07/09 06:01:19;;;;;;;7.72;6.05;;;;;;;17.96;100.00;97370.50;5076825;28;20137;-54
2022/07/09 06:03:54;;;;;;;7.50;6.65;;;;;;;18.21;100.00;97374.81;5077563;28;20542;-54
2022/07/09 06:06:23;;;;;;;7.35;5.95;;;;;;;17.85;100.00;97374.34;5074364;28;20091;-55
2022/07/09 06:08:53;;;;;;;6.50;5.47;;;;;;;17.69;100.00;97361.84;5078953;28;20086;-54
2022/07/09 06:11:21;;;;;;;;;;;;;;;17.97;100.00;97369.53;5081999;28;20075;-50
2022/07/09 06:13:49;;;;;;;6.72;5.38;;;;;;;18.13;100.00;97371.31;5082745;28;19968;-49
2022/07/09 06:16:18;;;;;;;8.55;5.93;;;;;;;17.98;100.00;97373.84;5079866;28;20091;-54
2022/07/09 06:18:46;;;;;;;9.68;5.40;;;;;;;17.88;100.00;97367.84;5080789;28;20084;-53
2022/07/09 06:21:15;;;;;;;7.18;5.55;;;;;;;17.95;100.00;97367.00;5082454;28;20080;-54
2022/07/09 06:23:43;;;;;;;6.35;5.75;;;;;;;17.90;100.00;97369.38;5077143;28;20542;-53
2022/07/09 06:26:13;;;;;;;8.00;6.05;;;;;;;18.34;100.00;97357.41;5076025;28;20071;-53
2022/07/09 06:28:41;;;;;;;7.57;5.63;;;;;;;18.55;100.00;97363.06;5078965;28;20040;-56
2022/07/09 06:31:09;;;;;;;8.45;6.40;;;;;;;18.49;100.00;97364.56;5079509;28;20102;-56
2022/07/09 06:33:38;;;;;;;7.65;5.40;;;;;;;18.97;100.00;97359.22;5081327;28;20102;-54
2022/07/09 06:36:07;;;;;;;6.28;5.38;;;;;;;18.59;100.00;97360.88;5081500;28;20515;-48
2022/07/09 06:39:44;;;;;;;7.38;5.15;;;;;;;18.71;100.00;97356.78;5076804;28;20056;-55
2022/07/09 06:41:28;;;;;;;7.07;4.88;;;;;;;18.96;100.00;97357.56;5069988;28;20102;-47
2022/07/09 06:43:56;;;;;;;6.70;5.80;;;;;;;18.85;100.00;97355.25;5074974;28;20087;-52
2022/07/09 06:46:26;;;;;;;7.57;5.25;;;;;;;19.21;100.00;97356.41;5073622;28;20059;-54
2022/07/09 06:48:54;;;;;;;6.10;5.05;;;;;;;19.08;100.00;97357.97;5077746;28;20117;-48
2022/07/09 06:51:23;;;;;;;5.93;4.90;;;;;;;19.39;100.00;97353.44;5073161;28;20084;-52
2022/07/09 06:53:51;;;;;;;10.50;6.10;;;;;;;19.46;100.00;97348.19;5074928;28;20088;-52
2022/07/09 06:56:19;;;;;;;6.03;5.00;;;;;;;19.55;100.00;97355.16;5081701;28;20072;-51
2022/07/09 06:58:49;;;;;;;6.95;6.35;;;;;;;19.25;100.00;97353.38;5083902;28;20090;-54
2022/07/09 07:01:17;;;;;;;6.07;5.57;;;;;;;18.79;100.00;97351.47;5082761;28;20106;-53
2022/07/09 07:03:46;;;;;;;8.77;8.10;;;;;;;19.02;100.00;97356.00;5081720;28;20549;-52
2022/07/09 07:06:14;;;;;;;6.93;5.63;;;;;;;18.98;100.00;97350.19;5082461;28;20076;-51
2022/07/09 07:08:42;;;;;;;6.63;4.75;;;;;;;19.21;100.00;97352.88;5085769;28;20076;-52
2022/07/09 07:11:11;;;;;;;7.30;6.68;;;;;;;18.85;100.00;97358.75;5084509;28;20072;-53
2022/07/09 07:13:39;;;;;;;9.68;5.65;;;;;;;19.20;100.00;97352.06;5082617;28;20080;-50
2022/07/09 07:16:09;;;;;;;5.97;4.43;;;;;;;19.60;100.00;97351.94;5077948;28;20103;-55
2022/07/09 07:18:38;;;;;;;8.05;5.25;;;;;;;19.78;100.00;97352.47;5079228;28;21187;-53
2022/07/09 07:21:07;;;;;;;7.38;6.43;;;;;;;19.75;100.00;97347.50;5080065;28;20481;-52
2022/07/09 07:23:35;;;;;;;6.85;4.82;;;;;;;20.07;100.00;97346.38;5074106;28;20583;-52
2022/07/09 07:26:04;;;;;;;6.68;4.65;;;;;;;20.40;100.00;97340.63;5076347;28;20462;-54
2022/07/09 07:28:32;;;;;;;6.55;5.70;;;;;;;20.56;100.00;97343.16;5077571;28;20068;-49
2022/07/09 07:31:01;;;;;;;5.55;5.03;;;;;;;20.61;100.00;97342.59;5078015;28;20082;-49
2022/07/09 07:33:31;;;;;;;6.57;5.97;;;;;;;20.84;100.00;97335.28;5076488;28;20529;-55
2022/07/09 07:35:59;;;;;;;9.32;5.97;;;;;;;21.29;100.00;97340.50;5084810;28;20092;-54
2022/07/09 07:38:28;;;;;;;6.25;5.57;;;;;;;21.08;100.00;97339.47;5085316;28;20090;-53
2022/07/09 07:40:56;;;;;;;6.60;5.55;;;;;;;21.64;100.00;97330.75;5078472;28;20130;-55
2022/07/09 07:43:24;;;;;;;7.72;5.55;;;;;;;21.82;100.00;97335.69;5079561;28;20072;-50
2022/07/09 07:45:53;;;;;;;5.68;4.78;;;;;;;22.19;100.00;97331.00;5077044;28;20075;-51
2022/07/09 07:48:21;;;;;;;9.23;6.53;;;;;;;22.57;100.00;97330.59;5080263;28;20530;-55
2022/07/09 07:50:51;;;;;;;8.15;6.15;;;;;;;22.53;100.00;97327.50;5077842;28;20084;-52
2022/07/09 07:53:19;;;;;;;7.82;5.45;;;;;;;22.54;100.00;97325.63;5078892;28;20067;-50
2022/07/09 07:55:47;;;;;;;6.78;6.20;;;;;;;23.14;100.00;97318.66;5082044;28;20079;-53
2022/07/09 07:58:16;;;;;;;7.25;6.65;;;;;;;22.81;100.00;97322.03;5078104;28;20040;-49
2022/07/09 08:00:44;;;;;;;8.35;5.85;;;;;;;22.95;100.00;97318.41;5078454;28;20121;-53
2022/07/09 08:03:13;;;;;;;6.47;5.88;;;;;;;23.27;100.00;97321.41;5084577;28;20068;-51
2022/07/09 08:05:42;;;;;;;6.45;5.22;;;;;;;22.65;100.00;97319.72;5076954;28;20052;-48
2022/07/09 08:08:12;;;;;;;7.10;6.07;;;;;;;22.64;100.00;97320.72;5080454;28;20083;-49
2022/07/09 08:10:40;;;;;;;8.10;5.30;;;;;;;22.52;100.00;97318.59;5077987;28;20568;-54
2022/07/09 08:13:08;;;;;;;7.28;6.68;;;;;;;22.73;100.00;97312.28;5080103;28;20079;-52
2022/07/09 08:15:37;;;;;;;7.47;5.60;;;;;;;23.11;100.00;97322.59;5081726;28;20083;-55
2022/07/09 08:18:08;;;;;;;8.25;5.57;;;;;;;22.43;100.00;97303.66;5077687;28;20512;-51
2022/07/09 08:20:37;;;;;;;7.95;5.55;;;;;;;22.52;100.00;97305.16;5082518;28;20526;-51
2022/07/09 08:23:05;;;;;;;7.05;5.78;;;;;;;22.89;100.00;97296.84;5080063;28;20522;-53
2022/07/09 08:25:35;;;;;;;5.80;5.28;;;;;;;23.06;100.00;97295.47;5079488;28;20079;-51
2022/07/09 08:28:04;;;;;;;8.70;5.97;;;;;;;23.25;100.00;97301.91;5077443;28;20072;-52
2022/07/09 08:30:32;;;;;;;5.80;5.10;;;;;;;22.64;100.00;97301.91;5078062;28;20091;-49
2022/07/09 08:33:01;;;;;;;6.93;5.95;;;;;;;23.50;100.00;97296.75;5078587;28;20518;-54
2022/07/09 08:35:29;;;;;;;6.10;5.38;;;;;;;23.76;100.00;97298.69;5078309;28;20082;-55
2022/07/09 08:37:57;;;;;;;9.70;5.55;;;;;;;23.64;100.00;97295.75;5078851;28;20102;-55
2022/07/09 08:40:26;;;;;;;6.57;5.97;;;;;;;23.45;100.00;97288.50;5076583;28;20114;-48
2022/07/09 08:42:56;;;;;;;6.68;5.80;;;;;;;22.90;100.00;97287.72;5078151;28;20075;-53
2022/07/09 08:45:27;;;;;;;7.72;4.97;;;;;;;22.93;100.00;97287.34;5076964;28;20534;-49
2022/07/09 08:47:56;;;;;;;8.23;5.25;;;;;;;23.55;100.00;97280.84;5081597;28;20549;-51
2022/07/09 08:50:26;;;;;;;6.15;4.45;;;;;;;23.52;100.00;97286.63;5081061;28;20076;-52
2022/07/09 08:52:55;;;;;;;9.15;5.25;;;;;;;24.15;100.00;97284.31;5082081;28;20076;-49
2022/07/09 08:55:23;;;;;;;6.30;5.80;;;;;;;23.72;100.00;97278.59;5076260;28;20087;-54
2022/07/09 08:57:52;;;;;;;5.97;5.07;;;;;;;23.31;100.00;97276.06;5080240;28;20095;-55
2022/07/09 09:00:21;;;;;;;5.25;4.82;;;;;;;23.88;100.00;97282.72;5077211;28;20075;-54
2022/07/09 09:02:50;;;;;;;5.38;4.78;;;;;;;23.16;100.00;97278.94;5077940;28;20649;-50
2022/07/09 09:05:18;;;;;;;7.95;5.80;;;;;;;23.85;94.97;97281.28;5088613;28;20083;-51
2022/07/09 09:07:46;;;;;;;6.40;4.97;;;;;;;23.95;100.00;97275.47;5072797;28;20067;-50
2022/07/09 09:10:22;;;;;;;6.70;5.65;;;;;;;24.30;100.00;97270.63;5079389;28;20566;-53
2022/07/09 09:12:50;;;;;;;7.03;5.80;;;;;;;23.89;100.00;97274.44;5076373;28;20085;-51
2022/07/09 09:15:20;;;;;;;7.85;6.25;;;;;;;24.37;100.00;97262.53;5078545;28;20499;-50
2022/07/09 09:17:49;;;;;;;6.22;5.35;;;;;;;24.99;93.24;97266.41;5073941;28;20391;-54
2022/07/09 09:20:18;;;;;;;6.45;5.95;;;;;;;24.93;100.00;97269.16;5082677;28;20113;-53
2022/07/09 09:22:48;;;;;;;9.75;5.72;;;;;;;24.43;80.62;97268.94;5082166;28;20082;-51
2022/07/09 09:25:19;;;;;;;6.20;5.60;;;;;;;25.09;97.34;97261.38;5086875;28;20072;-52
2022/07/09 09:27:53;;;;;;;6.78;4.85;;;;;;;25.17;100.00;97263.00;5078453;28;20079;-53
2022/07/09 09:30:23;;;;;;;6.05;5.25;;;;;;;25.20;79.45;97259.06;5074977;28;20103;-52
2022/07/09 09:32:55;;;;;;;;;;;;;;;24.73;92.22;97261.16;5076116;28;20076;-52
2022/07/09 09:35:24;;;;;;;6.47;4.60;;;;;;;24.87;89.20;97257.34;5081955;28;19963;-53
2022/07/09 09:37:53;;;;;;;6.10;3.88;;;;;;;25.15;82.26;97258.88;5072739;28;20076;-54
2022/07/09 09:40:21;;;;;;;8.07;6.00;;;;;;;24.91;89.17;97257.72;5074016;28;20079;-53
2022/07/09 09:42:50;;;;;;;7.15;6.15;;;;;;;25.56;77.45;97259.19;5082613;28;20075;-52
2022/07/09 09:45:25;;;;;;;6.22;5.63;;;;;;;26.81;68.28;97244.63;5078654;28;20079;-54
2022/07/09 09:47:53;;;;;;;;;;;;;;;26.49;69.66;97257.50;5076045;28;20083;-52
2022/07/09 09:50:23;;;;;;;5.60;4.07;;;;;;;26.58;61.78;97242.63;5075443;28;19966;-50
2022/07/09 09:52:54;;;;;;;6.55;4.70;;;;;;;27.36;73.83;97239.06;5075992;28;20082;-55
2022/07/09 09:55:23;;;;;;;5.57;5.07;;;;;;;27.28;67.58;97238.56;5081985;28;20110;-56
2022/07/09 09:57:53;;;;;;;6.38;4.25;;;;;;;26.08;62.50;97231.91;5077505;28;20071;-54
2022/07/09 10:00:22;;;;;;;4.60;4.05;;;;;;;25.62;60.87;97237.75;5079793;28;20067;-55
2022/07/09 10:02:52;;;;;;;6.40;4.05;;;;;;;27.79;50.34;97223.56;5080373;28;20087;-54
2022/07/09 10:05:20;;;;;;;6.72;5.35;;;;;;;27.06;54.23;97230.94;5074441;28;20082;-53
2022/07/09 10:07:48;;;;;;;5.43;4.90;;;;;;;26.87;63.58;97221.22;5073682;28;20080;-54
2022/07/09 10:10:18;;;;;;;7.47;5.22;;;;;;;26.42;66.76;97229.66;5077513;28;20533;-51
2022/07/09 10:12:47;;;;;;;6.60;5.15;;;;;;;26.52;64.78;97230.00;5075609;28;20071;-54
2022/07/09 10:15:22;;;;;;;5.07;4.60;;;;;;;25.88;71.67;97225.88;5075554;28;20515;-52
2022/07/09 10:17:53;;;;;;;5.78;5.20;;;;;;;26.63;58.20;97220.28;5077513;28;20541;-50
2022/07/09 10:20:31;;;;;;;5.72;5.22;;;;;;;26.34;72.44;97221.88;5071557;28;20490;-53
2022/07/09 10:23:00;;;;;;;5.72;5.05;;;;;;;26.89;67.80;97208.28;5077652;28;20086;-53
2022/07/09 10:25:30;;;;;;;5.68;5.10;;;;;;;26.96;67.15;97209.00;5072405;28;20080;-54
2022/07/09 10:27:58;;;;;;;9.18;4.82;;;;;;;27.02;64.90;97220.81;5076418;28;20083;-54
2022/07/09 10:30:29;;;;;;;5.65;5.18;;;;;;;26.63;68.58;97225.69;5077675;28;20518;-54
2022/07/09 10:33:07;;;;;;;7.65;5.72;;;;;;;25.97;71.53;97227.25;5073790;28;20083;-54
2022/07/09 10:35:42;;;;;;;6.30;5.65;;;;;;;26.12;65.49;97226.88;5079475;28;20071;-54
2022/07/09 10:38:12;;;;;;;6.97;5.57;;;;;;;25.64;66.30;97227.56;5080631;28;20092;-53
2022/07/09 10:40:42;;;;;;;7.75;5.82;;;;;;;25.24;68.89;97223.31;5075949;28;20370;-49
2022/07/09 10:43:11;;;;;;;7.45;5.45;;;;;;;26.07;67.03;97224.88;5079277;28;20080;-54
2022/07/09 10:45:40;;;;;;;7.85;5.60;;;;;;;27.29;63.01;97221.25;5078784;28;20092;-53
2022/07/09 10:48:11;;;;;;;6.30;5.75;;;;;;;27.18;57.11;97223.69;5076428;28;20099;-52
2022/07/09 10:50:41;;;;;;;6.63;5.22;;;;;;;27.37;55.21;97221.75;5078867;28;20083;-53
2022/07/09 10:53:11;;;;;;;6.15;5.43;;;;;;;27.39;51.96;97216.94;5075557;28;20080;-54
2022/07/09 10:55:43;;;;;;;4.78;4.38;;;;;;;27.84;47.20;97215.56;5075290;28;20075;-51
2022/07/09 10:58:17;;;;;;;5.32;4.63;;;;;;;27.85;51.24;97222.63;5077207;28;20481;-54
2022/07/09 11:00:46;;;;;;;4.93;4.53;;;;;;;27.14;63.08;97217.09;5071948;28;20090;-52
2022/07/09 11:03:15;;;;;;;5.95;5.40;;;;;;;26.26;66.08;97215.72;5078877;28;20075;-50
2022/07/09 11:05:47;;;;;;;5.15;4.65;;;;;;;25.93;67.14;97215.25;5082548;28;20080;-54
2022/07/09 11:08:15;;;;;;;5.47;4.97;;;;;;;25.81;68.67;97212.47;5083133;28;20099;-54
2022/07/09 11:10:43;;;;;;;6.13;5.53;;;;;;;26.19;67.61;97204.16;5080089;28;20088;-52
2022/07/09 11:13:18;;;;;;;5.82;4.40;;;;;;;26.42;62.29;97208.03;5084015;28;20079;-49
2022/07/09 11:15:47;;;;;;;6.30;4.40;;;;;;;26.38;62.92;97201.44;5080276;28;20080;-53
2022/07/09 11:18:16;;;;;;;7.03;4.50;;;;;;;27.01;57.85;97195.59;5079854;28;20098;-54
2022/07/09 11:20:45;;;;;;;5.53;5.03;;;;;;;26.72;59.67;97184.56;5078379;28;20505;-54
2022/07/09 11:23:16;;;;;;;6.23;5.60;;;;;;;26.97;62.24;97187.09;5086189;28;20118;-55
2022/07/09 11:25:44;;;;;;;;;;;;;;;27.20;62.97;97190.97;5086947;28;20497;-50
2022/07/09 11:28:19;;;;;;;4.55;4.10;;;;;;;26.37;73.62;97186.25;5088302;28;19956;-50
2022/07/09 11:30:58;;;;;;;4.68;4.18;;;;;;;26.28;63.99;97177.63;5087036;28;20087;-51
2022/07/09 11:34:10;;;;;;;5.80;3.78;;;;;;;25.92;62.32;97182.00;5079282;28;20068;-52
2022/07/09 11:36:16;;;;;;;4.45;4.00;;;;;;;26.43;62.48;97174.53;5079343;28;20094;-54